Aeroporto :







RITROVATECI SU...

 
LOGIN :

Iscrizione | Disclaimer

   EN    FR    IT 

 









Sommario :    VFR   VFR Marginale   IFR   IFR Intensivo   IFR Molto Intensivo
Visibilità : 
Base nubi : 
>= 8 km
>= 3000ft
5 / 8 km
1000 / 3000 ft
1500m / 5 km
500 / 1000 ft
800 / 1500m
200 / 500 ft
< 800m
< 200 ft
Simboli :   Temporali  Nebbia  Neve Forte  Precipitazioni Forti  Vento > 20 kt







- Altitudine del aeroporto : 92 ft
- Codice IATA : YZX


CYZX - CFB Greenwood

ULTIMO METAR :
  • 251200Z 00000KT 15SM SKC 14/10 A3039 RMK SLP292

METARs OBSOLETI :
  • 251100Z 25002KT 15SM SKC 10/08 A3038 RMK SLP289

TAF TAF CYZX
Valido dal 25 a 12 ore il 26 a 12 ore UTC


251135Z 2512/2612 VRB03KT P6SM SKC
BECMG 2513/2515 05008KT
BECMG 2516/2518 05012KT
FM260000 VRB03KT P6SM BKN250
FM261000 VRB03KT P6SM OVC180 RMK NXT FCST BY 251800Z
Nessun NOTAM noto per questo aeroporto.



MetMap, La meteo Aeronautica in un colpo d'occhio ! - Copyright ORBIFLY Dicembre 2007 - Disclaimer

ORBIFLY MET'MAP TEAM :

Programmazione e sviluppo : Alexandra Zaïnal
Concezione e sviluppo : Baudouin d'Aumeries
Co-Programmazione e sviluppo : Marc-Olivier Méhu
Supporto tecnico e logistico : Manuel Goepfert
Aiuto per la traduzione : Arnaldo La Scala

Contatto : metmap@orbifly.com




FONTI E CREDITI :

   NOAA